Time;durP1;ratioP1;P1;durP2;ratioP2;P2;SDS_P1;SDS_P2;PMS_P1;PMS_P2;Temp;Humidity;BMP_temperature;BMP_pressure;BME280_temperature;BME280_humidity;BME280_pressure;Samples;Min_cycle;Max_cycle;Signal;HPM_P1;HPM_P2
2021/01/29 00:00:40;;;;;;;5.40;2.30;;;;;;;-0.62;84.04;99682.43;123556;1109;64971;-74
2021/01/29 00:03:13;;;;;;;3.50;1.40;;;;;;;-0.63;83.23;99678.19;123299;1109;64926;-79
2021/01/29 00:05:44;;;;;;;3.60;1.95;;;;;;;-0.64;82.98;99669.55;123299;1109;64867;-78
2021/01/29 00:08:11;;;;;;;5.93;2.53;;;;;;;-0.63;83.81;99662.56;123184;1109;64938;-76
2021/01/29 00:10:39;;;;;;;6.10;2.80;;;;;;;-0.62;84.06;99658.98;123301;1109;65004;-77
2021/01/29 00:13:06;;;;;;;3.03;2.00;;;;;;;-0.60;84.47;99659.69;123310;1109;65522;-77
2021/01/29 00:15:33;;;;;;;3.80;2.30;;;;;;;-0.60;83.56;99653.66;123262;1108;65126;-77
2021/01/29 00:18:00;;;;;;;2.60;1.50;;;;;;;-0.61;84.45;99642.42;123153;1109;64950;-77
2021/01/29 00:20:28;;;;;;;4.20;3.00;;;;;;;-0.59;83.86;99642.30;123274;1109;64949;-75
2021/01/29 00:22:57;;;;;;;6.33;2.97;;;;;;;-0.57;84.43;99643.81;123439;1108;64934;-78
2021/01/29 00:25:30;;;;;;;6.03;3.20;;;;;;;-0.53;84.48;99642.61;123563;1108;64966;-76
2021/01/29 00:27:57;;;;;;;2.90;1.77;;;;;;;-0.51;83.87;99645.91;123410;1107;64981;-78
2021/01/29 00:30:23;;;;;;;4.43;2.47;;;;;;;-0.50;84.39;99642.33;123290;1109;64998;-79
2021/01/29 00:32:50;;;;;;;5.15;2.10;;;;;;;-0.49;83.67;99625.77;123339;1109;65062;-77
2021/01/29 00:35:19;;;;;;;3.90;2.40;;;;;;;-0.46;84.35;99625.48;123405;1109;65291;-77
2021/01/29 00:37:49;;;;;;;6.30;2.60;;;;;;;-0.47;84.27;99625.61;123348;1108;64998;-76
2021/01/29 00:40:17;;;;;;;4.33;2.33;;;;;;;-0.46;83.38;99624.67;123186;1109;65112;-78
2021/01/29 00:42:43;;;;;;;5.90;3.10;;;;;;;-0.46;83.79;99622.88;123452;1109;65000;-80
2021/01/29 00:45:11;;;;;;;5.00;2.30;;;;;;;-0.45;83.58;99621.95;123250;1109;64930;-78
2021/01/29 00:47:37;;;;;;;3.37;2.23;;;;;;;-0.45;84.30;99616.73;123306;1109;64905;-76
2021/01/29 00:50:06;;;;;;;7.00;2.80;;;;;;;-0.42;83.52;99610.43;123299;1108;64965;-77
2021/01/29 00:52:33;;;;;;;3.97;2.60;;;;;;;-0.42;83.84;99611.25;123457;1108;64892;-76
2021/01/29 00:54:59;;;;;;;5.10;2.93;;;;;;;-0.39;84.06;99614.55;123363;1109;64963;-79
2021/01/29 00:57:25;;;;;;;4.50;3.00;;;;;;;-0.35;83.39;99621.97;123230;1109;64966;-77
2021/01/29 00:59:52;;;;;;;7.13;2.87;;;;;;;-0.33;83.65;99614.84;123187;1109;66070;-77
2021/01/29 01:02:18;;;;;;;4.53;2.30;;;;;;;-0.30;83.97;99618.96;123198;1109;64860;-78
2021/01/29 01:04:44;;;;;;;3.27;2.03;;;;;;;-0.30;83.87;99611.14;123147;1109;65016;-77
2021/01/29 01:07:12;;;;;;;3.10;1.70;;;;;;;-0.31;83.12;99606.91;123137;1109;64920;-76
2021/01/29 01:09:40;;;;;;;4.17;2.47;;;;;;;-0.31;83.19;99602.51;123538;1108;65024;-79
2021/01/29 01:12:07;;;;;;;5.60;3.37;;;;;;;-0.27;83.88;99596.08;123428;1109;64995;-78
2021/01/29 01:14:33;;;;;;;8.40;2.90;;;;;;;-0.26;83.43;99594.29;123315;1109;65776;-80
2021/01/29 01:16:59;;;;;;;4.30;2.93;;;;;;;-0.28;83.11;99593.59;123250;1108;65052;-79
2021/01/29 01:19:26;;;;;;;4.73;2.30;;;;;;;-0.29;83.82;99597.17;123364;1108;64969;-76
2021/01/29 01:21:52;;;;;;;5.23;2.27;;;;;;;-0.30;83.29;99598.11;123413;1109;65020;-79
2021/01/29 01:24:18;;;;;;;2.73;1.37;;;;;;;-0.31;83.13;99593.88;123473;1109;64879;-76
2021/01/29 01:26:44;;;;;;;5.27;2.67;;;;;;;-0.30;82.91;99587.69;123165;1109;65334;-77
2021/01/29 01:29:11;;;;;;;9.00;4.03;;;;;;;-0.32;83.27;99580.03;123203;1109;64923;-79
2021/01/29 01:31:37;;;;;;;6.67;3.33;;;;;;;-0.30;83.54;99579.88;123361;1109;65428;-79
2021/01/29 01:34:03;;;;;;;4.95;2.60;;;;;;;-0.30;83.07;99566.84;123177;1109;65071;-77
2021/01/29 01:36:29;;;;;;;5.30;2.40;;;;;;;-0.31;83.03;99558.20;123149;1109;64898;-79
2021/01/29 01:38:55;;;;;;;1.93;1.40;;;;;;;-0.32;83.86;99548.76;123667;1108;65100;-79
2021/01/29 01:41:22;;;;;;;4.63;2.00;;;;;;;-0.33;83.99;99546.27;123141;1108;64902;-76
2021/01/29 01:43:48;;;;;;;11.07;3.17;;;;;;;-0.37;84.21;99534.47;123244;1108;64969;-76
2021/01/29 01:46:17;;;;;;;8.50;2.60;;;;;;;-0.38;83.44;99538.02;123186;1109;64915;-77
2021/01/29 01:49:07;;;;;;;4.40;2.13;;;;;;;-0.41;83.54;99529.51;123265;1108;64923;-76
2021/01/29 01:51:45;;;;;;;6.97;2.40;;;;;;;-0.43;83.84;99526.21;123225;1109;65945;-76
2021/01/29 01:54:27;;;;;;;3.97;2.27;;;;;;;-0.45;84.81;99522.94;123255;1109;64918;-76
2021/01/29 01:56:57;;;;;;;4.40;2.43;;;;;;;-0.48;85.24;99512.77;123291;1109;65022;-76
2021/01/29 01:59:41;;;;;;;4.15;2.80;;;;;;;-0.49;84.51;99508.53;123334;1109;64867;-80
2021/01/29 02:02:10;;;;;;;7.77;3.50;;;;;;;-0.49;85.14;99505.08;123334;1108;64952;-76
2021/01/29 02:04:42;;;;;;;5.30;3.00;;;;;;;-0.51;85.38;99502.62;123418;1109;65082;-79
2021/01/29 02:07:17;;;;;;;4.70;2.13;;;;;;;-0.51;85.47;99492.21;123376;1109;64997;-76
2021/01/29 02:09:46;;;;;;;4.03;2.03;;;;;;;-0.55;85.70;99483.02;123243;1109;64883;-76
2021/01/29 02:12:12;;;;;;;6.17;3.60;;;;;;;-0.56;85.26;99476.14;123335;1109;64971;-79
2021/01/29 02:14:39;;;;;;;4.87;2.97;;;;;;;-0.56;86.22;99468.33;123232;1109;64965;-75
2021/01/29 02:17:17;;;;;;;7.85;3.47;;;;;;;-0.57;85.30;99458.03;123213;1109;65055;-77
2021/01/29 02:19:59;;;;;;;5.53;3.00;;;;;;;-0.59;86.15;99447.77;123519;1109;64952;-79
2021/01/29 02:22:35;;;;;;;4.40;2.33;;;;;;;-0.60;85.60;99442.69;123378;1109;65038;-79
2021/01/29 02:25:20;;;;;;;5.97;2.60;;;;;;;-0.63;86.53;99431.58;123286;1109;64901;-78
2021/01/29 02:28:00;;;;;;;4.67;2.90;;;;;;;-0.64;86.48;99432.55;123277;1109;65567;-78
2021/01/29 02:31:06;;;;;;;5.13;2.53;;;;;;;-0.65;85.79;99419.66;123370;1109;65024;-81
2021/01/29 02:34:04;;;;;;;6.90;4.07;;;;;;;-0.65;86.18;99420.47;123276;1108;64840;-80
2021/01/29 02:36:41;;;;;;;6.77;3.10;;;;;;;-0.65;86.39;99417.87;123142;1107;64943;-77
2021/01/29 02:39:39;;;;;;;8.15;4.15;;;;;;;-0.66;86.37;99415.39;123289;1109;65365;-80
2021/01/29 02:42:29;;;;;;;5.67;2.00;;;;;;;-0.67;86.39;99400.73;123177;1109;65528;-79
2021/01/29 02:45:17;;;;;;;6.40;3.47;;;;;;;-0.66;86.80;99404.97;123485;1108;64946;-76
2021/01/29 02:47:57;;;;;;;8.33;3.23;;;;;;;-0.66;86.47;99398.00;123262;1109;64934;-79
2021/01/29 02:50:38;;;;;;;5.17;2.30;;;;;;;-0.66;85.74;99394.55;125264;1107;64860;-78
2021/01/29 02:53:38;;;;;;;7.63;2.20;;;;;;;-0.69;86.37;99393.05;123139;1107;64921;-76
2021/01/29 02:56:13;;;;;;;5.10;2.97;;;;;;;-0.68;85.51;99381.69;123240;1109;64937;-76
2021/01/29 02:58:48;;;;;;;6.47;1.90;;;;;;;-0.67;86.47;99374.69;123294;1109;65022;-76
2021/01/29 03:01:30;;;;;;;6.87;3.40;;;;;;;-0.68;85.56;99363.46;123612;1109;64940;-77
2021/01/29 03:04:06;;;;;;;6.37;2.67;;;;;;;-0.69;85.83;99348.78;123429;1109;64941;-76
2021/01/29 03:06:42;;;;;;;5.17;1.80;;;;;;;-0.71;86.33;99339.46;123178;1106;65001;-77
2021/01/29 03:09:25;;;;;;;3.57;1.93;;;;;;;-0.69;85.53;99332.34;123273;1108;65017;-76
2021/01/29 03:12:10;;;;;;;6.37;2.67;;;;;;;-0.68;85.45;99319.19;123159;1108;65004;-76
2021/01/29 03:14:46;;;;;;;4.27;2.30;;;;;;;-0.65;86.16;99313.70;123616;1108;64939;-77
2021/01/29 03:17:22;;;;;;;3.77;2.37;;;;;;;-0.63;85.04;99306.56;123591;1109;64940;-79
2021/01/29 03:19:59;;;;;;;3.43;1.80;;;;;;;-0.62;85.42;99297.81;123403;1108;62923;-77
2021/01/29 03:22:42;;;;;;;6.53;2.67;;;;;;;-0.62;86.01;99292.60;123468;1109;64908;-78
2021/01/29 03:25:23;;;;;;;10.27;4.20;;;;;;;-0.60;85.90;99289.02;123604;1108;64905;-77
2021/01/29 03:27:56;;;;;;;7.40;3.30;;;;;;;-0.59;85.97;99283.69;123387;1109;64997;-78
2021/01/29 03:30:30;;;;;;;2.83;1.83;;;;;;;-0.60;84.80;99282.02;123716;1107;64933;-79
2021/01/29 03:33:00;;;;;;;6.25;2.90;;;;;;;-0.63;85.27;99277.92;123397;1109;65045;-77
2021/01/29 03:35:37;;;;;;;6.23;2.53;;;;;;;-0.63;85.79;99269.29;123254;1108;64952;-76
2021/01/29 03:38:08;;;;;;;9.93;5.00;;;;;;;-0.64;85.71;99259.81;123383;1109;65561;-78
2021/01/29 03:40:40;;;;;;;8.37;2.53;;;;;;;-0.63;85.76;99256.27;123720;1109;65053;-78
2021/01/29 03:43:52;;;;;;;6.27;2.73;;;;;;;-0.64;84.97;99259.81;123440;1108;65391;-80
2021/01/29 03:46:55;;;;;;;3.70;2.27;;;;;;;-0.67;85.46;99242.70;123163;1109;63737;-80
2021/01/29 03:49:36;;;;;;;5.17;2.40;;;;;;;-0.64;85.84;99241.59;123231;1108;65164;-76
2021/01/29 03:52:37;;;;;;;5.63;3.57;;;;;;;-0.63;85.32;99235.44;123403;1106;65008;-76
2021/01/29 03:55:52;;;;;;;7.20;4.20;;;;;;;-0.62;84.67;99224.05;123465;1108;65007;-78
2021/01/29 03:58:27;;;;;;;5.40;3.00;;;;;;;-0.65;86.00;99219.12;122865;1112;64792;-77
2021/01/29 04:01:35;;;;;;;5.23;2.90;;;;;;;-0.65;86.23;99213.92;123482;1108;64795;-79
2021/01/29 04:04:21;;;;;;;7.67;3.27;;;;;;;-0.64;85.26;99210.34;123720;1109;64921;-76
2021/01/29 04:07:05;;;;;;;8.53;5.07;;;;;;;-0.64;85.46;99199.92;123432;1109;64918;-77
2021/01/29 04:09:51;;;;;;;4.13;2.50;;;;;;;-0.65;86.42;99196.50;123489;1109;64978;-78
2021/01/29 04:12:26;;;;;;;5.40;2.60;;;;;;;-0.64;86.99;99194.71;123363;1109;66059;-80
2021/01/29 04:15:24;;;;;;;7.80;2.73;;;;;;;-0.65;86.83;99191.30;123422;1109;64995;-77
2021/01/29 04:18:05;;;;;;;5.50;2.87;;;;;;;-0.64;85.67;99179.09;123474;1107;64921;-75
2021/01/29 04:20:47;;;;;;;6.93;3.10;;;;;;;-0.63;86.54;99181.56;123333;1109;64770;-80
2021/01/29 04:23:28;;;;;;;10.07;3.80;;;;;;;-0.61;85.54;99173.61;123376;1109;64942;-77
2021/01/29 04:26:07;;;;;;;4.90;3.37;;;;;;;-0.59;86.17;99169.09;123512;1109;63590;-76
2021/01/29 04:28:40;;;;;;;4.50;2.70;;;;;;;-0.61;86.41;99155.39;123611;1109;64950;-77
2021/01/29 04:31:10;;;;;;;4.83;2.70;;;;;;;-0.61;87.86;99157.98;123328;1109;64943;-79
2021/01/29 04:33:42;;;;;;;8.97;5.43;;;;;;;-0.61;87.75;99157.98;123187;1109;65001;-76
2021/01/29 04:36:14;;;;;;;6.03;3.47;;;;;;;-0.63;87.00;99150.31;123210;1109;64946;-78
2021/01/29 04:39:15;;;;;;;7.00;3.40;;;;;;;-0.62;87.69;99148.52;123288;1109;64931;-77
2021/01/29 04:42:09;;;;;;;4.43;2.50;;;;;;;-0.65;87.90;99151.42;123154;1109;64942;-77
2021/01/29 04:45:05;;;;;;;10.20;4.20;;;;;;;-0.68;88.02;99147.32;123292;1109;64902;-79
2021/01/29 04:48:06;;;;;;;5.10;2.93;;;;;;;-0.71;87.48;99136.35;123426;1109;64917;-76
2021/01/29 04:51:13;;;;;;;5.47;3.13;;;;;;;-0.73;88.79;99122.66;123374;1108;64917;-79
2021/01/29 04:54:05;;;;;;;8.75;4.10;;;;;;;-0.73;87.90;99122.66;123323;1109;65030;-79
2021/01/29 04:56:54;;;;;;;7.77;4.27;;;;;;;-0.74;88.66;99111.42;123270;1108;65272;-78
2021/01/29 04:59:45;;;;;;;7.40;3.27;;;;;;;-0.74;88.69;99105.41;123422;1109;64981;-77
2021/01/29 05:02:15;;;;;;;3.60;1.83;;;;;;;-0.76;89.82;99104.73;123234;1108;64957;-75
2021/01/29 05:05:15;;;;;;;4.90;2.70;;;;;;;-0.77;88.70;99097.86;123213;1109;65498;-78
2021/01/29 05:08:12;;;;;;;6.80;2.67;;;;;;;-0.78;89.09;99089.23;123203;1108;64914;-80
2021/01/29 05:10:53;;;;;;;5.40;2.27;;;;;;;-0.78;88.71;99078.01;123173;1107;65020;-77
2021/01/29 05:13:58;;;;;;;5.60;3.17;;;;;;;-0.78;89.18;99067.59;123168;1109;64933;-76
2021/01/29 05:16:46;;;;;;;3.23;1.97;;;;;;;-0.79;89.62;99058.94;123432;1109;65084;-79
2021/01/29 05:19:22;;;;;;;4.33;2.60;;;;;;;-0.79;89.82;99060.73;123426;1108;64867;-79
2021/01/29 05:22:07;;;;;;;4.93;2.90;;;;;;;-0.78;89.45;99064.98;123164;1109;64976;-77
2021/01/29 05:24:48;;;;;;;5.30;2.60;;;;;;;-0.78;89.17;99059.78;123403;1109;64933;-76
2021/01/29 05:27:44;;;;;;;8.75;3.90;;;;;;;-0.78;89.83;99054.58;123707;1109;65514;-81
2021/01/29 05:30:26;;;;;;;5.67;2.90;;;;;;;-0.77;89.51;99048.39;123257;1108;64976;-77
2021/01/29 05:33:24;;;;;;;6.90;4.13;;;;;;;-0.78;88.67;99036.35;123166;1109;64898;-79
2021/01/29 05:36:09;;;;;;;6.70;3.60;;;;;;;-0.79;89.14;99035.51;123648;1109;64946;-77
2021/01/29 05:38:51;;;;;;;7.80;4.15;;;;;;;-0.77;89.62;99027.56;123170;1107;64870;-76
2021/01/29 05:41:26;;;;;;;5.80;3.10;;;;;;;-0.79;90.23;99024.28;123300;1109;64937;-80
2021/01/29 05:43:51;;;;;;;;;;;;;;;-0.81;89.66;99011.40;123302;1109;64944;-80
2021/01/29 05:46:26;;;;;;;;;;;;;;;-0.79;89.34;99011.27;123315;1108;66205;-81
2021/01/29 05:49:25;;;;;;;10.63;5.03;;;;;;;-0.82;89.21;99007.98;124021;1109;65007;-77
2021/01/29 05:52:13;;;;;;;5.43;2.90;;;;;;;-0.85;90.32;99000.47;123191;1109;64965;-76
2021/01/29 05:54:54;;;;;;;5.63;2.80;;;;;;;-0.81;90.10;98998.38;123262;1109;64883;-75
2021/01/29 05:57:58;;;;;;;6.83;3.70;;;;;;;-0.85;90.42;98978.80;123163;1109;65250;-76
2021/01/29 06:00:46;;;;;;;4.70;2.55;;;;;;;-0.88;91.10;98979.92;123301;1109;65540;-76
2021/01/29 06:03:33;;;;;;;5.70;3.20;;;;;;;-0.90;89.73;98981.03;123448;1109;64908;-79
2021/01/29 06:06:28;;;;;;;5.20;2.93;;;;;;;-0.91;90.42;98974.20;123402;1108;64882;-81
2021/01/29 06:09:32;;;;;;;7.47;2.73;;;;;;;-0.95;90.15;98963.25;123373;1109;64882;-80
2021/01/29 06:12:05;;;;;;;7.57;4.00;;;;;;;-0.96;90.53;98961.59;123334;1108;65074;-81
2021/01/29 06:14:54;;;;;;;5.33;3.33;;;;;;;-0.95;90.11;98968.45;123466;1109;64940;-78
2021/01/29 06:17:39;;;;;;;8.23;3.53;;;;;;;-0.94;91.10;98967.47;123334;1108;64998;-77
2021/01/29 06:20:08;;;;;;;;;;;;;;;-0.93;90.30;98966.53;123247;1108;64997;-77
2021/01/29 06:23:18;;;;;;;7.33;3.37;;;;;;;-0.93;89.77;98950.91;123171;1109;64969;-77
2021/01/29 06:25:50;;;;;;;8.65;4.60;;;;;;;-0.94;90.24;98938.84;123199;1109;64981;-77
2021/01/29 06:28:38;;;;;;;6.20;2.70;;;;;;;-0.95;91.05;98936.41;123214;1109;65067;-77
2021/01/29 06:31:14;;;;;;;6.63;3.23;;;;;;;-0.95;90.87;98932.02;123396;1109;64908;-78
2021/01/29 06:33:56;;;;;;;5.07;2.80;;;;;;;-0.94;90.18;98925.83;123218;1108;65014;-77
2021/01/29 06:36:45;;;;;;;5.25;2.65;;;;;;;-0.92;91.13;98920.48;123193;1109;64997;-78
2021/01/29 06:39:21;;;;;;;5.77;2.77;;;;;;;-0.90;89.90;98905.55;123535;1108;64920;-78
2021/01/29 06:42:14;;;;;;;6.07;3.57;;;;;;;-0.88;90.64;98904.43;123547;1109;64965;-79
2021/01/29 06:45:03;;;;;;;4.80;2.60;;;;;;;-0.86;91.17;98894.69;123328;1109;64931;-77
2021/01/29 06:47:59;;;;;;;7.50;3.83;;;;;;;-0.86;89.47;98881.67;123148;1108;64914;-76
2021/01/29 06:50:32;;;;;;;;;;;;;;;-0.86;89.76;98879.08;123503;1106;64937;-78
2021/01/29 06:53:15;;;;;;;4.00;2.77;;;;;;;-0.85;90.56;98874.68;123509;1109;65036;-78
2021/01/29 06:56:06;;;;;;;7.40;3.90;;;;;;;-0.87;89.61;98872.24;123160;1109;64969;-78
2021/01/29 06:59:11;;;;;;;6.70;4.10;;;;;;;-0.86;89.83;98863.45;123343;1109;65758;-78
2021/01/29 07:01:57;;;;;;;7.87;4.03;;;;;;;-0.81;89.59;98860.41;123455;1108;64939;-76
2021/01/29 07:04:29;;;;;;;;;;;;;;;-0.80;89.56;98861.25;123656;1109;64917;-78
2021/01/29 07:07:19;;;;;;;11.27;3.03;;;;;;;-0.78;89.83;98856.72;123323;1109;65561;-79
2021/01/29 07:10:05;;;;;;;9.07;4.83;;;;;;;-0.77;90.18;98845.31;123258;1109;64915;-78
2021/01/29 07:12:49;;;;;;;9.60;3.85;;;;;;;-0.79;90.14;98853.27;124329;1109;64815;-77
2021/01/29 07:15:34;;;;;;;9.90;5.00;;;;;;;-0.76;89.85;98846.97;123564;1109;64949;-79
2021/01/29 07:18:27;;;;;;;11.70;6.20;;;;;;;-0.74;89.71;98842.44;123281;1109;64893;-78
2021/01/29 07:21:02;;;;;;;8.40;3.37;;;;;;;-0.73;89.99;98837.06;123234;1109;65036;-78
2021/01/29 07:23:39;;;;;;;11.80;6.67;;;;;;;-0.70;89.44;98846.35;123269;1109;64988;-79
2021/01/29 07:26:08;;;;;;;10.17;5.17;;;;;;;-0.69;90.54;98837.59;123142;1109;64937;-80
2021/01/29 07:29:11;;;;;;;7.10;4.17;;;;;;;-0.69;90.12;98835.80;123133;1109;64848;-77
2021/01/29 07:31:53;;;;;;;10.73;4.53;;;;;;;-0.67;90.40;98825.24;123430;1109;64863;-79
2021/01/29 07:34:57;;;;;;;9.70;5.47;;;;;;;-0.62;90.48;98836.02;123266;1109;64917;-80
2021/01/29 07:37:38;;;;;;;6.37;3.87;;;;;;;-0.62;89.15;98823.84;123183;1109;64892;-78
2021/01/29 07:40:20;;;;;;;9.70;4.35;;;;;;;-0.58;89.56;98823.53;123289;1109;64909;-79
2021/01/29 07:43:10;;;;;;;7.37;3.77;;;;;;;-0.56;89.96;98827.61;123474;1109;64921;-79
2021/01/29 07:46:08;;;;;;;8.40;4.37;;;;;;;-0.53;90.30;98822.12;123214;1108;65027;-79
2021/01/29 07:49:02;;;;;;;10.00;6.07;;;;;;;-0.53;89.11;98819.52;123393;1106;65068;-77
2021/01/29 07:51:42;;;;;;;6.00;3.30;;;;;;;-0.50;90.26;98827.02;123249;1109;65602;-78
2021/01/29 07:54:28;;;;;;;4.67;3.23;;;;;;;-0.49;89.76;98818.25;123418;1109;64937;-77
2021/01/29 07:57:11;;;;;;;7.03;3.67;;;;;;;-0.48;89.99;98817.27;123231;1109;64866;-80
2021/01/29 07:59:58;;;;;;;6.73;3.70;;;;;;;-0.47;89.58;98818.08;123476;1109;64920;-79
2021/01/29 08:02:54;;;;;;;6.27;3.97;;;;;;;-0.47;89.49;98813.71;123280;1109;65585;-79
2021/01/29 08:05:39;;;;;;;8.33;4.77;;;;;;;-0.48;89.73;98811.25;123290;1109;64918;-79
2021/01/29 08:08:17;;;;;;;6.17;3.20;;;;;;;-0.46;89.91;98806.70;123295;1109;64991;-78
2021/01/29 08:10:48;;;;;;;8.03;4.67;;;;;;;-0.45;89.44;98803.12;123268;1109;65005;-78
2021/01/29 08:13:31;;;;;;;8.53;4.67;;;;;;;-0.44;89.68;98810.79;123276;1109;64867;-77
2021/01/29 08:16:29;;;;;;;11.30;5.63;;;;;;;-0.42;89.80;98802.83;123359;1108;64978;-78
2021/01/29 08:19:19;;;;;;;13.67;6.53;;;;;;;-0.40;90.68;98803.50;123946;1109;62369;-79
2021/01/29 08:22:14;;;;;;;10.27;4.07;;;;;;;-0.38;90.66;98798.95;123847;1109;64844;-78
2021/01/29 08:25:14;;;;;;;12.05;6.60;;;;;;;-0.33;89.35;98795.89;123493;1109;64917;-77
2021/01/29 08:28:05;;;;;;;11.67;6.43;;;;;;;-0.36;89.13;98794.41;123298;1106;64931;-80
2021/01/29 08:30:58;;;;;;;10.17;5.23;;;;;;;-0.35;89.23;98798.64;123261;1108;64921;-78
2021/01/29 08:33:46;;;;;;;8.37;4.43;;;;;;;-0.38;89.63;98783.33;123338;1108;65244;-81
2021/01/29 08:36:45;;;;;;;8.85;4.00;;;;;;;-0.38;89.44;98793.75;123381;1109;65351;-78
2021/01/29 08:39:23;;;;;;;8.87;5.30;;;;;;;-0.36;89.62;98785.76;123301;1108;65377;-78
2021/01/29 08:42:08;;;;;;;7.67;4.37;;;;;;;-0.35;88.49;98788.22;123290;1109;65048;-77
2021/01/29 08:45:19;;;;;;;11.28;5.15;;;;;;;-0.36;88.80;98783.16;123214;1107;64813;-78
2021/01/29 08:48:17;;;;;;;7.00;3.80;;;;;;;-0.38;88.44;98777.28;123283;1109;64822;-77
2021/01/29 08:51:00;;;;;;;10.77;4.57;;;;;;;-0.36;88.81;98780.55;123901;1106;64917;-78
2021/01/29 08:54:08;;;;;;;8.80;4.63;;;;;;;-0.36;87.94;98775.34;123607;1108;64867;-79
2021/01/29 08:57:08;;;;;;;7.87;4.30;;;;;;;-0.35;88.77;98767.38;123690;1109;64867;-77
2021/01/29 08:59:39;;;;;;;4.95;2.55;;;;;;;-0.35;88.40;98776.98;123812;1109;64991;-79
2021/01/29 09:02:21;;;;;;;13.25;6.15;;;;;;;-0.32;88.82;98780.12;123902;1109;64061;-77
2021/01/29 09:04:47;;;;;;;9.17;4.07;;;;;;;-0.29;88.60;98773.78;123512;1109;64940;-78
2021/01/29 09:07:27;;;;;;;6.03;4.13;;;;;;;-0.28;88.04;98775.40;124072;1108;64985;-79
2021/01/29 09:10:06;;;;;;;8.17;4.13;;;;;;;-0.28;87.79;98767.58;124200;1109;65211;-78
2021/01/29 09:12:36;;;;;;;9.17;4.73;;;;;;;-0.27;88.55;98771.84;124078;1109;65028;-78
2021/01/29 09:15:16;;;;;;;10.27;4.83;;;;;;;-0.27;87.45;98762.23;123503;1109;64942;-78
2021/01/29 09:18:00;;;;;;;11.77;5.70;;;;;;;-0.26;87.93;98761.24;123414;1108;65320;-78
2021/01/29 09:20:42;;;;;;;7.37;3.87;;;;;;;-0.24;87.64;98759.30;123254;1109;64202;-77
2021/01/29 09:23:22;;;;;;;10.07;4.77;;;;;;;-0.21;88.25;98759.02;123873;1109;65072;-78
2021/01/29 09:26:08;;;;;;;10.43;6.23;;;;;;;-0.21;88.20;98769.44;123286;1108;65556;-79
2021/01/29 09:28:38;;;;;;;7.70;3.63;;;;;;;-0.21;87.20;98758.20;123232;1109;65077;-77
2021/01/29 09:31:19;;;;;;;10.33;5.07;;;;;;;-0.21;88.30;98761.62;123328;1109;64920;-78
2021/01/29 09:33:59;;;;;;;8.75;4.35;;;;;;;-0.21;87.05;98758.20;123714;1108;65048;-79
2021/01/29 09:36:33;;;;;;;9.47;5.40;;;;;;;-0.24;87.56;98750.67;123256;1108;64972;-78
2021/01/29 09:39:13;;;;;;;8.10;4.70;;;;;;;-0.24;87.51;98758.49;123333;1109;65716;-78
2021/01/29 09:41:47;;;;;;;10.17;6.07;;;;;;;-0.24;87.34;98755.88;123515;1107;65575;-78
2021/01/29 09:44:26;;;;;;;8.87;5.30;;;;;;;-0.25;87.45;98756.88;123583;1108;64930;-78
2021/01/29 09:46:55;;;;;;;8.47;4.33;;;;;;;-0.24;88.39;98761.91;123569;1109;64918;-77
2021/01/29 09:49:26;;;;;;;10.87;4.47;;;;;;;-0.27;87.52;98756.20;123786;1109;64917;-78
2021/01/29 09:52:12;;;;;;;8.20;4.20;;;;;;;-0.28;88.48;98752.76;123288;1109;64905;-78
2021/01/29 09:55:06;;;;;;;9.73;5.17;;;;;;;-0.26;88.44;98755.22;123278;1108;64959;-78
2021/01/29 09:58:12;;;;;;;3.90;2.93;;;;;;;-0.28;88.35;98759.77;123308;1109;64774;-79
2021/01/29 10:00:45;;;;;;;6.40;3.50;;;;;;;-0.27;87.73;98766.63;123341;1109;64911;-79
2021/01/29 10:03:27;;;;;;;10.90;5.07;;;;;;;-0.27;87.89;98764.02;123232;1109;64921;-80
2021/01/29 10:06:00;;;;;;;7.25;4.10;;;;;;;-0.28;87.73;98762.38;123643;1109;65071;-78
2021/01/29 10:08:29;;;;;;;5.77;2.90;;;;;;;-0.27;88.96;98764.02;123324;1109;66133;-78
2021/01/29 10:11:18;;;;;;;5.37;3.23;;;;;;;-0.26;87.99;98761.24;123386;1108;64979;-78
2021/01/29 10:14:14;;;;;;;11.40;5.93;;;;;;;-0.26;88.67;98765.64;124091;1108;64834;-80
2021/01/29 10:17:01;;;;;;;6.95;4.55;;;;;;;-0.25;88.56;98762.08;123859;1108;64917;-77
2021/01/29 10:19:41;;;;;;;7.63;4.57;;;;;;;-0.28;88.69;98751.95;123815;1109;65023;-80
2021/01/29 10:22:23;;;;;;;4.80;2.80;;;;;;;-0.29;88.12;98745.13;123226;1109;64968;-78
2021/01/29 10:24:52;;;;;;;8.50;4.10;;;;;;;-0.30;88.46;98739.09;123286;1108;64998;-76
2021/01/29 10:27:24;;;;;;;10.53;4.57;;;;;;;-0.32;88.31;98737.59;123235;1109;64806;-80
2021/01/29 10:30:12;;;;;;;8.27;4.23;;;;;;;-0.32;88.50;98742.80;123522;1109;65045;-77
2021/01/29 10:32:42;;;;;;;7.20;3.63;;;;;;;-0.34;89.95;98736.92;123391;1109;64924;-77
2021/01/29 10:35:17;;;;;;;8.77;5.00;;;;;;;-0.33;89.35;98733.37;123193;1109;64921;-77
2021/01/29 10:37:53;;;;;;;8.15;4.08;;;;;;;-0.30;89.76;98733.05;123359;1109;65110;-77
2021/01/29 10:40:23;;;;;;;6.15;4.10;;;;;;;-0.27;89.77;98723.14;123338;1109;64943;-77
2021/01/29 10:43:02;;;;;;;7.80;4.37;;;;;;;-0.19;89.47;98724.98;123207;1109;64949;-77
2021/01/29 10:45:36;;;;;;;5.27;2.90;;;;;;;-0.17;89.46;98728.26;123309;1109;64809;-77
2021/01/29 10:48:15;;;;;;;6.83;3.60;;;;;;;-0.16;89.25;98719.45;123239;1109;64962;-79
2021/01/29 10:51:17;;;;;;;7.03;4.37;;;;;;;-0.14;88.93;98720.13;123165;1108;65026;-79
2021/01/29 10:53:43;;;;;;;6.60;3.00;;;;;;;-0.12;88.57;98714.77;123201;1109;64917;-77
2021/01/29 10:56:18;;;;;;;7.87;3.67;;;;;;;-0.09;88.12;98717.86;123182;1109;64927;-77
2021/01/29 10:59:04;;;;;;;8.70;4.93;;;;;;;-0.11;88.73;98714.59;123205;1109;64947;-77
2021/01/29 11:01:38;;;;;;;6.77;4.03;;;;;;;-0.14;88.61;98714.91;123194;1109;64934;-78
2021/01/29 11:04:23;;;;;;;6.20;3.90;;;;;;;-0.13;88.60;98723.53;123436;1109;64907;-76
2021/01/29 11:07:03;;;;;;;7.90;3.67;;;;;;;-0.13;88.71;98732.16;123254;1109;64937;-76
2021/01/29 11:09:37;;;;;;;7.13;4.60;;;;;;;-0.13;87.90;98734.77;123187;1108;66724;-77
2021/01/29 11:12:35;;;;;;;7.50;4.40;;;;;;;-0.11;88.46;98740.64;123202;1109;64977;-76
2021/01/29 11:15:23;;;;;;;5.50;3.50;;;;;;;-0.07;88.46;98749.80;123218;1109;65004;-77
2021/01/29 11:18:00;;;;;;;4.77;3.03;;;;;;;-0.05;88.57;98747.04;123290;1109;64925;-79
2021/01/29 11:20:36;;;;;;;5.47;2.90;;;;;;;-0.02;87.67;98737.13;123795;1109;65009;-80
2021/01/29 11:23:20;;;;;;;7.47;4.27;;;;;;;-0.02;88.40;98747.55;123809;1109;64950;-79
2021/01/29 11:26:09;;;;;;;6.33;4.70;;;;;;;0.01;87.83;98735.19;123249;1109;64927;-78
2021/01/29 11:28:42;;;;;;;4.13;2.20;;;;;;;-0.01;87.64;98743.96;123390;1109;64840;-78
2021/01/29 11:31:23;;;;;;;4.30;2.30;;;;;;;-0.02;88.15;98736.32;123690;1109;65151;-81
2021/01/29 11:33:50;;;;;;;4.63;2.93;;;;;;;-0.04;87.81;98743.48;123244;1109;64923;-80
2021/01/29 11:36:31;;;;;;;5.93;2.93;;;;;;;-0.04;87.86;98740.88;123155;1109;64917;-77
2021/01/29 11:39:31;;;;;;;7.07;4.23;;;;;;;-0.03;87.83;98735.48;123322;1109;64898;-78
2021/01/29 11:42:21;;;;;;;8.70;4.23;;;;;;;-0.05;87.28;98731.40;123212;1109;64924;-79
2021/01/29 11:45:06;;;;;;;5.45;3.20;;;;;;;-0.08;87.78;98737.75;123264;1109;65045;-80
2021/01/29 11:47:51;;;;;;;4.80;3.83;;;;;;;-0.14;87.71;98712.30;123268;1108;64966;-78
2021/01/29 11:50:28;;;;;;;4.10;1.80;;;;;;;-0.22;88.96;98730.49;123171;1108;64864;-79
2021/01/29 11:53:22;;;;;;;4.37;2.67;;;;;;;-0.24;88.43;98720.22;123279;1108;65797;-78
2021/01/29 11:56:04;;;;;;;4.97;2.97;;;;;;;-0.24;88.47;98711.59;123391;1109;64998;-76
2021/01/29 11:58:49;;;;;;;5.60;3.13;;;;;;;-0.24;89.25;98711.59;123430;1109;64911;-79
2021/01/29 12:01:46;;;;;;;5.70;3.52;;;;;;;-0.23;88.36;98702.81;123445;1109;64932;-77
2021/01/29 12:04:31;;;;;;;7.53;3.07;;;;;;;-0.22;88.47;98704.44;123388;1109;64937;-77
2021/01/29 12:07:14;;;;;;;6.45;3.95;;;;;;;-0.22;89.33;98699.23;123139;1109;65046;-79
2021/01/29 12:09:43;;;;;;;6.47;3.47;;;;;;;-0.19;89.15;98700.70;123201;1109;64942;-77
2021/01/29 12:12:23;;;;;;;5.93;3.23;;;;;;;-0.18;88.88;98700.55;123176;1108;64924;-77
2021/01/29 12:14:55;;;;;;;5.07;3.10;;;;;;;-0.14;88.00;98701.06;123325;1109;64885;-79
2021/01/29 12:17:27;;;;;;;8.30;3.83;;;;;;;-0.13;87.82;98698.28;123371;1109;64949;-77
2021/01/29 12:20:08;;;;;;;7.30;3.63;;;;;;;-0.11;88.78;98691.13;123268;1109;65001;-78
2021/01/29 12:22:47;;;;;;;4.90;2.90;;;;;;;-0.08;87.94;98696.05;123292;1108;64934;-81
2021/01/29 12:25:58;;;;;;;9.30;5.53;;;;;;;-0.06;87.85;98696.70;123487;1108;64867;-78
2021/01/29 12:28:31;;;;;;;6.83;3.97;;;;;;;-0.05;87.96;98689.70;123146;1109;65333;-78
2021/01/29 12:31:09;;;;;;;8.43;5.43;;;;;;;-0.06;88.10;98683.68;123300;1108;64920;-78